Time;durP1;ratioP1;P1;durP2;ratioP2;P2;SDS_P1;SDS_P2;PMS_P1;PMS_P2;Temp;Humidity;BMP_temperature;BMP_pressure;BME280_temperature;BME280_humidity;BME280_pressure;Samples;Min_cycle;Max_cycle;Signal;HPM_P1;HPM_P2
2023/09/18 00:03:10;;;;;;;3.10;2.30;;;;;;;19.83;56.14;97642.94;10333814;28;20153;-63
2023/09/18 00:08:31;;;;;;;3.20;2.22;;;;;;;19.77;56.37;97642.75;10333359;28;20046;-63
2023/09/18 00:13:51;;;;;;;4.50;2.05;;;;;;;19.66;56.76;97633.22;10333682;28;20074;-63
2023/09/18 00:19:12;;;;;;;3.08;2.25;;;;;;;19.47;56.79;97633.31;10333216;28;20121;-62
2023/09/18 00:24:33;;;;;;;2.90;2.08;;;;;;;19.43;57.08;97636.75;10333325;28;20154;-63
2023/09/18 00:29:54;;;;;;;5.80;2.55;;;;;;;19.35;57.50;97630.84;10336769;28;20113;-63
2023/09/18 00:35:16;;;;;;;2.75;2.15;;;;;;;19.32;57.65;97632.16;10312931;28;20121;-63
2023/09/18 00:40:37;;;;;;;3.95;2.38;;;;;;;19.25;57.80;97636.16;10326733;28;20125;-62
2023/09/18 00:45:57;;;;;;;4.30;2.30;;;;;;;19.12;57.82;97630.13;10340454;28;20122;-63
2023/09/18 00:51:18;;;;;;;4.88;2.50;;;;;;;18.94;58.24;97623.88;10298754;28;20201;-63
2023/09/18 00:56:39;;;;;;;3.13;2.05;;;;;;;18.72;58.43;97617.47;10340407;28;20429;-63
2023/09/18 01:02:00;;;;;;;3.45;2.47;;;;;;;18.62;59.22;97617.09;10339814;28;20133;-63
2023/09/18 01:07:21;;;;;;;6.80;2.17;;;;;;;18.51;59.42;97604.72;10339586;28;20122;-63
2023/09/18 01:12:51;;;;;;;3.58;2.38;;;;;;;18.43;59.62;97599.53;10325344;28;20124;-62
2023/09/18 01:18:12;;;;;;;4.32;2.35;;;;;;;18.33;59.93;97582.22;10298609;28;20058;-63
2023/09/18 01:23:32;;;;;;;6.03;2.80;;;;;;;18.24;60.25;97575.59;10324269;28;20153;-63
2023/09/18 01:28:54;;;;;;;3.83;2.55;;;;;;;18.23;60.47;97581.84;10338868;28;20128;-63
2023/09/18 01:34:16;;;;;;;3.22;2.42;;;;;;;18.11;60.67;97570.88;10338600;28;20070;-62
2023/09/18 01:39:38;;;;;;;7.03;2.73;;;;;;;17.98;60.86;97554.88;10324139;28;20096;-62
2023/09/18 01:44:59;;;;;;;3.25;2.50;;;;;;;17.88;61.27;97543.22;10323808;28;20552;-62
2023/09/18 01:50:20;;;;;;;5.10;2.42;;;;;;;17.81;61.62;97544.38;10309770;28;20078;-62
2023/09/18 01:55:41;;;;;;;3.25;2.78;;;;;;;17.74;61.94;97546.97;10337682;28;20177;-63
2023/09/18 02:01:02;;;;;;;5.55;2.80;;;;;;;17.72;62.09;97544.06;10323090;28;20065;-62
2023/09/18 02:06:23;;;;;;;4.90;3.30;;;;;;;17.66;62.63;97551.56;10322757;28;20145;-63
2023/09/18 02:11:46;;;;;;;4.35;2.92;;;;;;;17.54;62.94;97534.91;10337081;28;20464;-63
2023/09/18 02:17:07;;;;;;;6.10;3.65;;;;;;;17.52;62.96;97534.13;10322404;28;20446;-63
2023/09/18 02:22:28;;;;;;;5.28;3.38;;;;;;;17.51;63.00;97518.56;10322005;28;20129;-63
2023/09/18 02:27:49;;;;;;;5.35;3.53;;;;;;;17.44;64.32;97504.22;10322009;28;20121;-63
2023/09/18 02:33:10;;;;;;;5.10;3.90;;;;;;;17.39;65.89;97490.63;10322248;28;20187;-64
2023/09/18 02:38:32;;;;;;;5.50;3.92;;;;;;;17.28;64.34;97486.72;10336170;28;20074;-63
2023/09/18 02:43:53;;;;;;;6.35;4.90;;;;;;;17.18;65.02;97489.16;10336022;28;20307;-63
2023/09/18 02:49:14;;;;;;;4.60;4.07;;;;;;;17.01;64.62;97484.28;10334648;28;20126;-63
2023/09/18 02:54:35;;;;;;;5.90;4.85;;;;;;;16.87;66.37;97479.53;10306995;28;20085;-64
2023/09/18 02:59:56;;;;;;;7.07;4.80;;;;;;;16.86;65.95;97478.06;10320748;28;20495;-63
2023/09/18 03:05:17;;;;;;;7.05;4.88;;;;;;;16.84;66.37;97475.19;10334307;28;20516;-64
2023/09/18 03:10:39;;;;;;;5.78;4.35;;;;;;;16.86;66.76;97472.44;10320606;28;20073;-64
2023/09/18 03:16:00;;;;;;;8.90;4.45;;;;;;;16.84;67.71;97461.09;10320038;28;20515;-63
2023/09/18 03:21:22;;;;;;;7.43;5.03;;;;;;;16.84;68.44;97460.38;10306817;28;20050;-63
2023/09/18 03:26:42;;;;;;;8.00;5.05;;;;;;;16.81;68.35;97453.94;10334186;28;20066;-63
2023/09/18 03:32:03;;;;;;;6.70;4.25;;;;;;;16.74;68.57;97457.88;10334165;28;20552;-63
2023/09/18 03:37:25;;;;;;;5.40;4.13;;;;;;;16.68;68.57;97448.44;10306044;28;20100;-64
2023/09/18 03:42:46;;;;;;;8.23;4.50;;;;;;;16.62;69.39;97437.66;10319187;28;20054;-64
2023/09/18 03:48:07;;;;;;;5.63;4.47;;;;;;;16.61;69.23;97441.84;10319187;28;20158;-63
2023/09/18 03:53:28;;;;;;;5.80;4.38;;;;;;;16.53;69.91;97435.91;10318694;28;20207;-64
2023/09/18 03:58:49;;;;;;;7.82;4.43;;;;;;;16.46;69.91;97431.38;10333930;28;20113;-64
2023/09/18 04:04:11;;;;;;;6.03;4.57;;;;;;;16.38;70.18;97422.59;10304227;28;20073;-64
2023/09/18 04:09:31;;;;;;;7.53;5.10;;;;;;;16.33;70.42;97418.19;10318591;28;20062;-64
2023/09/18 04:14:52;;;;;;;9.95;4.85;;;;;;;16.33;70.77;97412.56;10291392;28;20403;-64
2023/09/18 04:20:13;;;;;;;10.00;4.60;;;;;;;16.24;70.91;97420.69;10318585;28;20122;-64
2023/09/18 04:25:33;;;;;;;6.32;5.03;;;;;;;16.17;71.08;97415.44;10331880;28;20142;-64
2023/09/18 04:30:55;;;;;;;5.75;4.53;;;;;;;16.12;71.49;97419.47;10318328;28;20349;-64
2023/09/18 04:36:17;;;;;;;6.15;4.43;;;;;;;16.11;71.97;97403.91;10318009;28;20109;-64
2023/09/18 04:41:38;;;;;;;6.97;5.38;;;;;;;16.15;72.02;97404.81;10318038;28;20042;-64
2023/09/18 04:47:00;;;;;;;7.50;5.28;;;;;;;16.17;72.21;97407.72;10331401;28;20074;-64
2023/09/18 04:52:21;;;;;;;6.80;4.63;;;;;;;16.38;72.29;97408.53;10332526;28;20042;-64
2023/09/18 04:57:41;;;;;;;6.55;5.22;;;;;;;16.71;72.22;97404.91;10332331;28;20088;-64
2023/09/18 05:03:03;;;;;;;7.80;5.18;;;;;;;16.78;71.77;97412.94;10332167;28;20458;-64
2023/09/18 05:08:24;;;;;;;9.07;4.93;;;;;;;17.09;71.69;97411.28;10317517;28;20050;-64
2023/09/18 05:13:46;;;;;;;6.43;4.90;;;;;;;17.50;71.28;97399.34;10332430;28;20042;-64
2023/09/18 05:19:07;;;;;;;8.02;5.15;;;;;;;18.68;70.78;97402.50;10324683;28;20038;-64
2023/09/18 05:24:29;;;;;;;7.75;5.35;;;;;;;21.96;67.48;97386.25;10338652;28;20389;-64
2023/09/18 05:29:49;;;;;;;10.35;5.82;;;;;;;24.83;62.45;97386.06;10339180;28;20077;-64
2023/09/18 05:35:12;;;;;;;10.73;5.30;;;;;;;26.86;57.64;97365.69;10338583;28;20093;-64
2023/09/18 05:40:34;;;;;;;6.72;5.07;;;;;;;28.08;53.81;97361.50;10338218;28;20066;-65
2023/09/18 05:45:55;;;;;;;8.97;5.63;;;;;;;28.58;49.26;97374.03;10337933;28;20423;-65
2023/09/18 05:51:16;;;;;;;8.70;5.35;;;;;;;27.86;46.23;97368.81;10337600;28;20176;-65
2023/09/18 05:56:37;;;;;;;9.93;5.75;;;;;;;27.06;44.32;97347.75;10337583;28;20533;-65
2023/09/18 06:01:57;;;;;;;11.90;6.20;;;;;;;27.28;44.62;97346.94;10337240;28;20074;-65
2023/09/18 06:07:18;;;;;;;14.13;5.93;;;;;;;29.55;41.14;97343.47;10336878;28;20054;-64
2023/09/18 06:12:39;;;;;;;17.65;6.15;;;;;;;32.18;38.24;97330.53;10337100;28;20121;-65
2023/09/18 06:18:00;;;;;;;9.67;5.73;;;;;;;34.17;34.35;97341.50;10322594;28;20077;-66
2023/09/18 06:23:20;;;;;;;8.97;5.40;;;;;;;37.91;30.66;97345.41;10336508;28;20130;-65
2023/09/18 06:28:41;;;;;;;8.40;5.15;;;;;;;42.80;23.52;97333.06;10335765;28;20385;-66
2023/09/18 06:34:02;;;;;;;11.25;4.80;;;;;;;45.26;19.01;97322.34;10336215;28;20050;-68
2023/09/18 06:39:23;;;;;;;13.00;4.80;;;;;;;45.04;17.01;97322.56;10336233;28;20559;-68
2023/09/18 06:44:44;;;;;;;10.35;4.53;;;;;;;45.94;15.45;97344.88;10335497;28;20084;-68
2023/09/18 06:50:05;;;;;;;20.20;5.45;;;;;;;47.54;14.47;97338.69;10335566;28;20073;-67
2023/09/18 06:55:26;;;;;;;21.35;5.38;;;;;;;48.47;13.66;97317.72;10335410;28;20129;-68
2023/09/18 07:00:50;;;;;;;6.15;4.00;;;;;;;47.33;13.27;97325.72;10334752;28;20049;-68
2023/09/18 07:06:11;;;;;;;6.75;3.40;;;;;;;48.29;13.38;97326.03;10320846;28;20050;-68
2023/09/18 07:11:32;;;;;;;9.90;3.25;;;;;;;50.28;10.90;97320.97;10334951;28;20506;-68
2023/09/18 07:16:53;;;;;;;7.47;2.92;;;;;;;50.58;10.88;97323.16;10334662;28;20120;-68
2023/09/18 07:22:14;;;;;;;4.68;2.58;;;;;;;51.86;10.06;97326.22;10319731;28;20058;-68
2023/09/18 07:27:36;;;;;;;6.90;2.55;;;;;;;53.86;8.66;97323.25;10334424;28;20598;-68
2023/09/18 07:32:57;;;;;;;3.60;1.70;;;;;;;54.37;8.22;97314.31;10334244;28;20129;-69
2023/09/18 07:38:21;;;;;;;3.90;1.67;;;;;;;53.29;8.32;97314.88;10333866;28;20050;-68
2023/09/18 07:43:42;;;;;;;3.83;1.70;;;;;;;52.34;8.56;97303.06;10334012;28;20074;-67
2023/09/18 07:49:03;;;;;;;4.53;1.77;;;;;;;51.53;9.06;97306.56;10333543;28;20050;-68
2023/09/18 07:54:24;;;;;;;5.93;1.70;;;;;;;49.05;10.44;97298.94;10333685;28;20061;-68
2023/09/18 07:59:46;;;;;;;4.47;1.75;;;;;;;47.44;11.31;97283.47;10333429;28;20674;-68
2023/09/18 08:05:08;;;;;;;3.83;1.90;;;;;;;47.33;12.14;97293.22;10333413;28;20147;-67
2023/09/18 08:10:29;;;;;;;5.50;1.63;;;;;;;46.74;12.40;97277.69;10318684;28;20129;-67
2023/09/18 08:15:50;;;;;;;4.10;2.00;;;;;;;48.85;11.26;97286.06;10332897;28;20066;-68
2023/09/18 08:21:13;;;;;;;8.05;2.00;;;;;;;50.00;10.19;97282.28;10333441;28;20042;-68
2023/09/18 08:26:34;;;;;;;2.88;1.92;;;;;;;48.82;10.88;97287.81;10332915;28;20493;-68
2023/09/18 08:31:55;;;;;;;2.42;1.38;;;;;;;50.07;10.70;97283.75;10333295;28;20074;-68
2023/09/18 08:37:16;;;;;;;5.93;1.95;;;;;;;49.29;10.43;97275.16;10332801;28;20125;-68
2023/09/18 08:42:39;;;;;;;3.58;1.50;;;;;;;49.00;10.31;97295.69;10332688;28;20054;-68
2023/09/18 08:48:02;;;;;;;5.30;1.48;;;;;;;50.60;10.18;97305.13;10318702;28;20042;-68
2023/09/18 08:53:24;;;;;;;2.67;1.50;;;;;;;50.42;9.30;97276.63;10312134;28;20108;-68
2023/09/18 08:58:44;;;;;;;3.30;1.45;;;;;;;48.72;10.88;97268.75;10340173;28;20054;-68
2023/09/18 09:04:05;;;;;;;8.50;1.60;;;;;;;48.14;11.08;97257.88;10324761;28;20051;-68
2023/09/18 09:09:28;;;;;;;3.65;1.70;;;;;;;47.92;11.47;97262.91;10339269;28;20050;-68
2023/09/18 09:15:02;;;;;;;6.93;1.58;;;;;;;48.82;11.34;97247.06;10324575;28;20081;-68
2023/09/18 09:20:23;;;;;;;5.95;1.55;;;;;;;45.44;12.32;97253.16;10338856;28;20050;-68
2023/09/18 09:25:44;;;;;;;3.00;1.70;;;;;;;42.03;15.48;97250.31;10324196;28;20069;-67
2023/09/18 09:31:05;;;;;;;2.38;1.55;;;;;;;42.56;15.21;97223.28;10323882;28;20057;-68
2023/09/18 09:36:27;;;;;;;3.65;1.70;;;;;;;42.48;15.65;97215.03;10338442;28;20054;-68
2023/09/18 09:41:49;;;;;;;3.47;1.60;;;;;;;44.64;14.00;97216.84;10323524;28;20185;-69
2023/09/18 09:47:11;;;;;;;4.65;1.83;;;;;;;44.30;13.92;97206.22;10310460;28;20050;-67
2023/09/18 09:52:33;;;;;;;4.18;1.42;;;;;;;43.60;14.97;97204.13;10337846;28;20061;-68
2023/09/18 09:57:59;;;;;;;3.80;1.63;;;;;;;42.43;15.21;97202.19;10337397;28;20050;-66
2023/09/18 10:03:20;;;;;;;3.90;1.83;;;;;;;42.22;15.49;97188.94;10336766;28;20054;-67
2023/09/18 10:08:42;;;;;;;4.15;1.48;;;;;;;42.61;15.66;97209.72;10337353;28;20495;-67
2023/09/18 10:14:07;;;;;;;4.82;1.27;;;;;;;46.44;13.41;97183.66;10337234;28;20042;-68
2023/09/18 10:19:51;;;;;;;4.65;1.30;;;;;;;49.95;11.00;97181.16;10309878;28;20085;-68
2023/09/18 10:25:21;;;;;;;4.70;0.90;;;;;;;51.19;10.08;97189.06;10335739;28;20564;-68
2023/09/18 10:30:42;;;;;;;1.83;1.20;;;;;;;52.13;8.72;97181.91;10322054;28;20069;-68
2023/09/18 10:36:04;;;;;;;1.85;0.95;;;;;;;53.61;8.04;97179.22;10322275;28;20046;-68
2023/09/18 10:41:26;;;;;;;2.35;0.77;;;;;;;53.91;8.02;97171.97;10336591;28;20583;-69
2023/09/18 10:46:51;;;;;;;1.88;1.00;;;;;;;52.83;8.18;97172.56;10336428;28;20050;-69
2023/09/18 10:52:15;;;;;;;2.67;0.80;;;;;;;53.27;7.75;97153.41;10321028;28;20113;-69
2023/09/18 10:57:38;;;;;;;6.63;0.95;;;;;;;52.79;8.25;97149.19;10308525;28;20046;-69
2023/09/18 11:03:18;;;;;;;1.10;0.77;;;;;;;51.56;8.70;97152.44;10335934;28;20061;-68
2023/09/18 11:08:46;;;;;;;2.13;0.85;;;;;;;51.05;8.72;97151.94;10320755;28;20057;-68
2023/09/18 11:14:10;;;;;;;1.65;0.90;;;;;;;52.24;8.72;97146.44;10334312;28;20058;-68
2023/09/18 11:19:31;;;;;;;5.53;0.90;;;;;;;51.60;8.88;97140.09;10334308;28;20460;-68
2023/09/18 11:24:53;;;;;;;3.90;1.20;;;;;;;50.75;8.99;97152.22;10320257;28;20509;-67
2023/09/18 11:30:25;;;;;;;2.88;0.85;;;;;;;51.00;9.14;97142.09;10319752;28;20053;-67
2023/09/18 11:35:54;;;;;;;1.52;0.80;;;;;;;51.04;9.18;97147.59;10334261;28;20381;-66
2023/09/18 11:41:25;;;;;;;3.47;1.60;;;;;;;49.37;9.48;97143.97;10334272;28;20046;-68
2023/09/18 11:46:50;;;;;;;3.38;1.70;;;;;;;44.89;12.70;97144.97;10306595;28;20050;-68
2023/09/18 11:52:12;;;;;;;5.85;1.60;;;;;;;40.47;15.98;97141.03;10333718;28;20046;-67
2023/09/18 11:57:37;;;;;;;4.53;1.65;;;;;;;38.27;19.13;97136.75;10333857;28;20042;-68
2023/09/18 12:02:58;;;;;;;3.63;2.03;;;;;;;37.78;19.14;97115.97;10333637;28;20113;-67
2023/09/18 12:08:19;;;;;;;3.72;2.17;;;;;;;37.46;19.81;97105.97;10305948;28;20100;-67
2023/09/18 12:13:41;;;;;;;3.85;1.85;;;;;;;37.18;20.40;97096.41;10318487;28;20128;-67
2023/09/18 12:19:02;;;;;;;4.07;2.10;;;;;;;36.44;21.45;97102.06;10318603;28;20046;-67
2023/09/18 12:24:23;;;;;;;3.75;1.90;;;;;;;35.97;22.46;97098.31;10334261;28;20054;-67
2023/09/18 12:29:44;;;;;;;8.32;2.22;;;;;;;35.29;22.92;97102.63;10326705;28;20054;-67
2023/09/18 12:35:09;;;;;;;5.10;2.10;;;;;;;35.06;23.51;97087.66;10326795;28;20138;-67
2023/09/18 12:40:32;;;;;;;3.63;1.80;;;;;;;35.53;22.86;97087.16;10340307;28;20137;-67
2023/09/18 12:45:54;;;;;;;5.88;2.22;;;;;;;35.64;23.20;97086.72;10340626;28;20078;-67
2023/09/18 12:51:22;;;;;;;6.10;2.00;;;;;;;36.40;22.61;97076.81;10325455;28;20057;-67
2023/09/18 12:56:43;;;;;;;2.25;2.05;;;;;;;35.79;22.70;97078.78;10312949;28;20050;-67
2023/09/18 13:02:04;;;;;;;4.80;2.25;;;;;;;35.26;23.14;97063.63;10324978;28;20062;-66
2023/09/18 13:07:27;;;;;;;6.20;2.65;;;;;;;34.91;23.98;97073.72;10325261;28;20046;-67
2023/09/18 13:12:55;;;;;;;7.47;2.40;;;;;;;34.41;24.52;97074.19;10325861;28;20069;-67
2023/09/18 13:18:16;;;;;;;4.30;1.90;;;;;;;33.55;25.35;97073.66;10339336;28;20082;-64
2023/09/18 13:23:38;;;;;;;3.47;2.30;;;;;;;32.61;25.78;97061.50;10338961;28;20130;-64
2023/09/18 13:28:59;;;;;;;2.92;2.17;;;;;;;32.56;26.65;97060.22;10338639;28;20134;-64
2023/09/18 13:34:21;;;;;;;8.03;2.20;;;;;;;32.51;26.25;97061.81;10338952;28;20481;-64
2023/09/18 13:39:42;;;;;;;4.47;2.15;;;;;;;32.24;27.30;97061.88;10338486;28;20061;-64
2023/09/18 13:45:06;;;;;;;2.42;2.20;;;;;;;32.39;26.93;97060.00;10338093;28;20055;-64
2023/09/18 13:50:27;;;;;;;3.83;2.17;;;;;;;32.60;26.79;97065.84;10336890;28;20103;-64
2023/09/18 13:55:48;;;;;;;7.80;2.60;;;;;;;32.71;27.25;97061.16;10323660;28;20545;-66
2023/09/18 14:01:09;;;;;;;4.17;2.30;;;;;;;32.66;27.14;97059.91;10337540;28;20066;-64
2023/09/18 14:06:30;;;;;;;4.40;2.22;;;;;;;33.09;26.99;97049.16;10336908;28;20050;-67
2023/09/18 14:11:51;;;;;;;4.93;2.60;;;;;;;33.45;26.71;97047.97;10322650;28;20385;-64
2023/09/18 14:17:13;;;;;;;5.82;2.13;;;;;;;33.52;26.63;97043.38;10336879;28;20097;-64
2023/09/18 14:22:34;;;;;;;4.93;2.20;;;;;;;33.07;26.57;97040.56;10322304;28;20054;-64
2023/09/18 14:27:56;;;;;;;6.05;2.25;;;;;;;32.56;27.11;97042.19;10336577;28;20404;-64
2023/09/18 14:33:17;;;;;;;;;;;;;;;32.49;27.59;97027.22;10336416;28;20054;-66
2023/09/18 14:38:38;;;;;;;4.05;2.20;;;;;;;32.51;27.25;97032.91;10334868;28;20307;-64
2023/09/18 14:43:59;;;;;;;4.30;2.13;;;;;;;32.08;27.22;97013.97;10321100;28;20046;-64
2023/09/18 14:49:20;;;;;;;4.07;3.35;;;;;;;31.36;28.60;97026.06;10333979;28;20078;-64
2023/09/18 14:54:41;;;;;;;5.30;3.23;;;;;;;30.89;28.72;97017.88;10335237;28;20451;-64
2023/09/18 15:00:05;;;;;;;3.88;2.30;;;;;;;30.65;29.00;97019.16;10335070;28;20404;-64
2023/09/18 15:05:26;;;;;;;4.57;2.15;;;;;;;30.40;29.91;97027.63;10321422;28;20077;-64
2023/09/18 15:10:47;;;;;;;3.60;1.90;;;;;;;30.20;30.37;97020.84;10335258;28;20396;-63
2023/09/18 15:16:08;;;;;;;6.82;2.63;;;;;;;30.03;30.62;97014.03;10333755;28;20506;-64
2023/09/18 15:21:30;;;;;;;3.70;2.10;;;;;;;29.85;31.31;97015.09;10334391;28;20089;-63
2023/09/18 15:26:51;;;;;;;4.63;1.67;;;;;;;29.64;31.46;97009.06;10306676;28;20038;-64
2023/09/18 15:32:11;;;;;;;6.03;2.05;;;;;;;29.43;31.64;97013.03;10334126;28;20050;-64
2023/09/18 15:37:32;;;;;;;3.65;2.30;;;;;;;29.26;31.79;96998.25;10333581;28;20074;-64
2023/09/18 15:42:53;;;;;;;5.05;2.40;;;;;;;29.06;32.61;97010.81;10333592;28;20428;-64
2023/09/18 15:48:14;;;;;;;4.85;2.13;;;;;;;28.91;33.06;97012.50;10319133;28;20038;-64
2023/09/18 15:53:35;;;;;;;8.23;2.65;;;;;;;28.79;33.54;97008.38;10333646;28;20046;-64
2023/09/18 15:58:57;;;;;;;9.00;2.63;;;;;;;28.62;33.77;97007.19;10333420;28;20070;-64
2023/09/18 16:04:18;;;;;;;3.85;2.63;;;;;;;28.50;34.37;97002.34;10333360;28;20054;-63
2023/09/18 16:09:40;;;;;;;6.63;2.67;;;;;;;28.38;34.71;97013.31;10332994;28;20089;-64
2023/09/18 16:15:02;;;;;;;3.97;1.92;;;;;;;28.13;35.09;97019.34;10332632;28;20057;-64
2023/09/18 16:20:23;;;;;;;7.47;2.25;;;;;;;28.04;35.87;97020.19;10318718;28;20042;-63
2023/09/18 16:25:44;;;;;;;5.35;2.17;;;;;;;27.98;35.96;97009.50;10332716;28;20477;-64
2023/09/18 16:31:08;;;;;;;7.13;2.78;;;;;;;27.90;36.02;97004.59;10318147;28;20092;-64
2023/09/18 16:36:29;;;;;;;3.65;2.45;;;;;;;27.77;36.07;96991.16;10332691;28;20452;-63
2023/09/18 16:41:50;;;;;;;5.75;2.55;;;;;;;27.61;36.50;96989.19;10332566;28;20054;-63
2023/09/18 16:47:13;;;;;;;4.88;2.67;;;;;;;27.43;37.13;96989.38;10332562;28;20077;-64
2023/09/18 16:52:35;;;;;;;9.10;2.50;;;;;;;27.23;37.39;96993.16;10317606;28;20050;-64
2023/09/18 16:57:56;;;;;;;4.23;2.33;;;;;;;27.01;37.94;96999.78;10332387;28;20101;-64
2023/09/18 17:03:17;;;;;;;20.65;3.13;;;;;;;26.66;38.98;97011.53;10332315;28;20301;-64
2023/09/18 17:08:39;;;;;;;14.63;2.78;;;;;;;26.01;40.58;96997.63;10317678;28;20043;-63
2023/09/18 17:14:00;;;;;;;6.67;1.73;;;;;;;25.45;42.52;97018.53;10338418;28;20532;-63
2023/09/18 17:19:21;;;;;;;5.05;1.70;;;;;;;24.90;43.91;97029.97;10339360;28;20061;-63
2023/09/18 17:24:42;;;;;;;7.32;1.30;;;;;;;24.45;44.85;97024.97;10339205;28;20084;-63
2023/09/18 17:30:04;;;;;;;5.32;0.98;;;;;;;24.11;45.77;97056.94;10338741;28;20053;-64
2023/09/18 17:35:25;;;;;;;7.88;1.30;;;;;;;23.80;46.84;97075.34;10338759;28;20073;-63
2023/09/18 17:40:47;;;;;;;5.57;0.95;;;;;;;23.55;47.68;97091.56;10338468;28;20054;-64
2023/09/18 17:46:07;;;;;;;6.25;1.30;;;;;;;23.25;49.55;97117.69;10339218;28;20077;-63
2023/09/18 17:51:28;;;;;;;5.93;1.40;;;;;;;22.99;50.71;97124.59;10337987;28;20473;-63
2023/09/18 17:56:49;;;;;;;4.43;1.20;;;;;;;22.71;52.01;97121.47;10337776;28;20125;-63
2023/09/18 18:02:10;;;;;;;3.75;0.60;;;;;;;22.34;53.29;97121.06;10337463;28;20136;-63
2023/09/18 18:07:32;;;;;;;3.90;0.63;;;;;;;22.11;53.97;97133.59;10337362;28;20389;-63
2023/09/18 18:12:53;;;;;;;3.75;0.65;;;;;;;21.95;54.73;97131.22;10337286;28;20062;-64
2023/09/18 18:18:13;;;;;;;2.65;0.70;;;;;;;21.86;55.56;97136.06;10308977;28;20145;-63
2023/09/18 18:23:35;;;;;;;4.28;0.47;;;;;;;21.77;55.24;97153.69;10321413;28;20053;-63
2023/09/18 18:28:57;;;;;;;2.90;0.50;;;;;;;21.60;56.26;97181.13;10336456;28;20046;-63
2023/09/18 18:34:18;;;;;;;2.58;0.63;;;;;;;21.27;57.37;97191.97;10322010;28;20105;-63
2023/09/18 18:39:39;;;;;;;2.65;0.35;;;;;;;21.12;58.37;97202.31;10336163;28;20085;-63
2023/09/18 18:45:00;;;;;;;4.35;0.60;;;;;;;21.06;58.68;97207.91;10335917;28;20120;-63
2023/09/18 18:50:21;;;;;;;3.40;0.50;;;;;;;21.04;59.69;97238.38;10335844;28;20515;-63
2023/09/18 18:55:41;;;;;;;3.70;0.50;;;;;;;20.89;60.53;97242.34;10335389;28;20501;-63
2023/09/18 19:01:04;;;;;;;4.93;0.50;;;;;;;20.69;61.52;97234.88;10335346;28;20047;-63
2023/09/18 19:06:26;;;;;;;2.85;0.40;;;;;;;20.50;62.96;97230.94;10334896;28;20053;-63
2023/09/18 19:11:46;;;;;;;4.07;0.68;;;;;;;20.54;63.88;97227.47;10334555;28;20490;-63
2023/09/18 19:17:07;;;;;;;4.13;0.40;;;;;;;20.43;64.19;97225.81;10334492;28;20423;-63
2023/09/18 19:22:27;;;;;;;3.75;0.43;;;;;;;20.41;64.30;97220.09;10334782;28;20080;-63
2023/09/18 19:27:48;;;;;;;2.50;0.50;;;;;;;20.23;64.62;97232.47;10335177;28;20747;-63
2023/09/18 19:33:10;;;;;;;3.20;0.50;;;;;;;20.27;66.27;97241.09;10333800;28;20098;-63
2023/09/18 19:38:31;;;;;;;4.43;0.63;;;;;;;20.30;66.55;97247.50;10334314;28;20497;-63
2023/09/18 19:43:52;;;;;;;3.70;0.40;;;;;;;20.28;66.59;97273.69;10334036;28;20496;-63
2023/09/18 19:49:12;;;;;;;2.42;0.45;;;;;;;20.06;66.44;97269.63;10334026;28;20133;-63
2023/09/18 19:54:33;;;;;;;4.03;0.50;;;;;;;19.89;67.25;97268.53;10333622;28;20130;-63
2023/09/18 19:59:54;;;;;;;3.40;0.55;;;;;;;19.71;67.95;97255.41;10333522;28;20483;-63
2023/09/18 20:05:15;;;;;;;2.72;0.80;;;;;;;19.50;68.57;97247.78;10333669;28;20054;-63
2023/09/18 20:10:36;;;;;;;3.22;0.55;;;;;;;19.52;69.04;97235.78;10333253;28;20110;-63
2023/09/18 20:16:00;;;;;;;1.40;0.50;;;;;;;19.49;69.31;97243.47;10318751;28;20109;-63
2023/09/18 20:21:22;;;;;;;2.75;0.40;;;;;;;19.47;69.32;97229.28;10333147;28;20121;-63
2023/09/18 20:26:46;;;;;;;1.88;0.32;;;;;;;19.35;69.99;97237.47;10318440;28;20077;-63
2023/09/18 20:32:07;;;;;;;2.13;0.40;;;;;;;19.38;70.26;97242.50;10318768;28;20050;-63
2023/09/18 20:37:28;;;;;;;4.35;0.60;;;;;;;19.44;70.57;97224.97;10332883;28;20457;-63
2023/09/18 20:42:49;;;;;;;2.25;0.40;;;;;;;19.38;70.53;97225.53;10332786;28;20523;-63
2023/09/18 20:48:09;;;;;;;2.45;0.50;;;;;;;19.33;71.08;97238.16;10338951;28;20093;-63
2023/09/18 20:53:30;;;;;;;3.22;0.45;;;;;;;19.35;71.36;97220.50;10325883;28;20047;-63
2023/09/18 20:58:56;;;;;;;3.30;0.40;;;;;;;19.40;71.62;97210.72;10325585;28;20066;-63
2023/09/18 21:04:17;;;;;;;3.47;0.30;;;;;;;19.47;71.21;97217.25;10325839;28;20090;-63
2023/09/18 21:09:40;;;;;;;4.22;0.52;;;;;;;19.57;71.48;97228.84;10339940;28;20125;-63
2023/09/18 21:15:01;;;;;;;1.92;0.50;;;;;;;19.53;70.75;97223.78;10339840;28;20142;-63
2023/09/18 21:20:22;;;;;;;2.55;0.40;;;;;;;19.51;70.86;97220.19;10339502;28;20105;-63
2023/09/18 21:25:43;;;;;;;2.33;0.40;;;;;;;19.38;70.89;97213.50;10339484;28;20074;-63
2023/09/18 21:31:12;;;;;;;2.40;0.35;;;;;;;19.35;71.04;97212.00;10310915;28;20085;-63
2023/09/18 21:36:34;;;;;;;3.05;0.45;;;;;;;19.27;70.98;97212.53;10338692;28;20121;-63
2023/09/18 21:41:55;;;;;;;2.78;0.60;;;;;;;19.21;71.57;97206.72;10338738;28;20081;-63
2023/09/18 21:47:16;;;;;;;2.17;0.50;;;;;;;19.25;71.87;97209.66;10338571;28;20069;-63
2023/09/18 21:52:37;;;;;;;2.78;0.60;;;;;;;19.29;71.63;97215.41;10338012;28;20074;-63
2023/09/18 21:57:57;;;;;;;2.25;0.55;;;;;;;19.11;71.51;97221.34;10337857;28;20108;-63
2023/09/18 22:03:18;;;;;;;1.33;0.60;;;;;;;18.96;72.23;97222.34;10338163;28;20105;-63
2023/09/18 22:08:39;;;;;;;2.08;0.50;;;;;;;18.99;73.08;97215.34;10337521;28;20039;-63
2023/09/18 22:14:00;;;;;;;1.98;0.55;;;;;;;18.88;73.06;97244.75;10337259;28;20469;-63
2023/09/18 22:19:24;;;;;;;3.53;0.47;;;;;;;18.74;73.69;97230.25;10337284;28;20573;-63
2023/09/18 22:24:45;;;;;;;1.70;0.57;;;;;;;18.71;73.88;97225.91;10337293;28;20054;-63
2023/09/18 22:30:07;;;;;;;3.07;0.80;;;;;;;18.73;74.51;97211.84;10336594;28;20133;-63
2023/09/18 22:35:30;;;;;;;2.25;0.90;;;;;;;18.71;74.32;97206.09;10336606;28;20089;-63
2023/09/18 22:40:56;;;;;;;2.67;0.50;;;;;;;18.65;74.58;97214.44;10336272;28;20117;-63
2023/09/18 22:46:55;;;;;;;2.55;0.55;;;;;;;18.67;74.62;97211.66;10336141;28;20508;-63
2023/09/18 22:52:41;;;;;;;2.10;0.57;;;;;;;18.58;74.94;97207.88;10335783;28;20513;-63
2023/09/18 22:58:02;;;;;;;2.42;0.50;;;;;;;18.31;75.27;97197.91;10335691;28;20185;-63
2023/09/18 23:03:23;;;;;;;2.53;0.50;;;;;;;18.08;75.47;97198.66;10320633;28;20078;-62
2023/09/18 23:08:44;;;;;;;1.17;0.30;;;;;;;17.98;76.32;97191.34;10320348;28;20118;-62
2023/09/18 23:14:05;;;;;;;1.80;0.60;;;;;;;17.89;76.61;97197.41;10335367;28;20169;-63
2023/09/18 23:19:25;;;;;;;1.35;0.43;;;;;;;17.83;76.55;97197.94;10334867;28;20122;-63
2023/09/18 23:24:47;;;;;;;1.90;0.50;;;;;;;17.64;76.64;97202.25;10319896;28;20105;-63
2023/09/18 23:30:11;;;;;;;1.67;0.30;;;;;;;17.48;77.69;97203.88;10320089;28;20070;-63
2023/09/18 23:35:36;;;;;;;1.40;0.28;;;;;;;17.39;77.92;97192.31;10333994;28;20141;-63
2023/09/18 23:41:00;;;;;;;2.67;0.30;;;;;;;17.35;77.79;97194.28;10320297;28;20100;-64
2023/09/18 23:46:25;;;;;;;0.40;0.20;;;;;;;17.33;78.13;97194.94;10334006;28;20104;-63
2023/09/18 23:51:50;;;;;;;2.63;0.30;;;;;;;17.26;77.90;97193.28;10333584;28;20074;-64
2023/09/18 23:57:10;;;;;;;1.00;0.30;;;;;;;17.22;77.82;97195.25;10319923;28;20038;-64
